sensor_id;sensor_type;location;lat;lon;timestamp;pressure;altitude;pressure_sealevel;temperature;humidity
69624;BME280;56843;52.020;5.670;2022-07-29T00:00:22;101558.31;;;14.79;60.64
69624;BME280;56843;52.020;5.670;2022-07-29T00:01:52;101566.72;;;14.77;60.60
69624;BME280;56843;52.020;5.670;2022-07-29T00:03:23;101561.69;;;14.76;60.68
69624;BME280;56843;52.020;5.670;2022-07-29T00:04:53;101565.81;;;14.73;60.68
69624;BME280;56843;52.020;5.670;2022-07-29T00:06:24;101562.69;;;14.71;60.80
69624;BME280;56843;52.020;5.670;2022-07-29T00:07:54;101553.72;;;14.67;60.82
69624;BME280;56843;52.020;5.670;2022-07-29T00:09:25;101549.44;;;14.66;60.75
69624;BME280;56843;52.020;5.670;2022-07-29T00:10:55;101552.47;;;14.64;60.94
69624;BME280;56843;52.020;5.670;2022-07-29T00:12:26;101565.13;;;14.64;61.35
69624;BME280;56843;52.020;5.670;2022-07-29T00:13:56;101558.50;;;14.61;61.50
69624;BME280;56843;52.020;5.670;2022-07-29T00:15:27;101556.94;;;14.60;61.46
69624;BME280;56843;52.020;5.670;2022-07-29T00:16:57;101556.94;;;14.60;61.52
69624;BME280;56843;52.020;5.670;2022-07-29T00:18:28;101549.19;;;14.59;61.52
69624;BME280;56843;52.020;5.670;2022-07-29T00:19:58;101548.72;;;14.57;61.36
69624;BME280;56843;52.020;5.670;2022-07-29T00:21:28;101556.78;;;14.57;61.67
69624;BME280;56843;52.020;5.670;2022-07-29T00:22:59;101559.47;;;14.57;61.70
69624;BME280;56843;52.020;5.670;2022-07-29T00:24:30;101555.25;;;14.56;61.70
69624;BME280;56843;52.020;5.670;2022-07-29T00:26:00;101550.97;;;14.55;61.63
69624;BME280;56843;52.020;5.670;2022-07-29T00:27:31;101548.28;;;14.55;61.57
69624;BME280;56843;52.020;5.670;2022-07-29T00:29:03;101544.81;;;14.54;61.77
69624;BME280;56843;52.020;5.670;2022-07-29T00:30:34;101549.41;;;14.54;61.70
69624;BME280;56843;52.020;5.670;2022-07-29T00:32:05;101541.34;;;14.54;61.88
69624;BME280;56843;52.020;5.670;2022-07-29T00:33:35;101544.03;;;14.54;62.01
69624;BME280;56843;52.020;5.670;2022-07-29T00:35:06;101535.50;;;14.52;61.84
69624;BME280;56843;52.020;5.670;2022-07-29T00:36:56;101531.25;;;14.51;62.04
69624;BME280;56843;52.020;5.670;2022-07-29T00:38:27;101529.34;;;14.51;62.44
69624;BME280;56843;52.020;5.670;2022-07-29T00:39:57;101518.16;;;14.49;62.36
69624;BME280;56843;52.020;5.670;2022-07-29T00:41:28;101531.25;;;14.51;62.25
69624;BME280;56843;52.020;5.670;2022-07-29T00:42:59;101526.22;;;14.49;62.16
69624;BME280;56843;52.020;5.670;2022-07-29T00:44:29;101531.59;;;14.49;61.94
69624;BME280;56843;52.020;5.670;2022-07-29T00:46:00;101526.53;;;14.48;62.62
69624;BME280;56843;52.020;5.670;2022-07-29T00:47:30;101533.81;;;14.47;62.63
69624;BME280;56843;52.020;5.670;2022-07-29T00:49:01;101532.25;;;14.46;62.35
69624;BME280;56843;52.020;5.670;2022-07-29T00:50:32;101527.97;;;14.45;62.42
69624;BME280;56843;52.020;5.670;2022-07-29T00:52:04;101522.94;;;14.44;62.46
69624;BME280;56843;52.020;5.670;2022-07-29T00:53:35;101517.09;;;14.42;62.53
69624;BME280;56843;52.020;5.670;2022-07-29T00:55:09;101520.13;;;14.40;62.79
69624;BME280;56843;52.020;5.670;2022-07-29T00:56:40;101518.53;;;14.39;62.89
69624;BME280;56843;52.020;5.670;2022-07-29T00:58:12;101519.34;;;14.40;62.86
69624;BME280;56843;52.020;5.670;2022-07-29T00:59:44;101514.63;;;14.37;62.79
69624;BME280;56843;52.020;5.670;2022-07-29T01:01:14;101518.53;;;14.39;62.77
69624;BME280;56843;52.020;5.670;2022-07-29T01:02:45;101513.97;;;14.40;62.69
69624;BME280;56843;52.020;5.670;2022-07-29T01:04:19;101522.03;;;14.40;62.76
69624;BME280;56843;52.020;5.670;2022-07-29T01:05:50;101522.47;;;14.42;62.64
69624;BME280;56843;52.020;5.670;2022-07-29T01:07:21;101519.00;;;14.41;62.75
69624;BME280;56843;52.020;5.670;2022-07-29T01:08:51;101516.66;;;14.40;62.62
69624;BME280;56843;52.020;5.670;2022-07-29T01:10:22;101520.59;;;14.42;62.63
69624;BME280;56843;52.020;5.670;2022-07-29T01:11:53;101516.31;;;14.41;62.65
69624;BME280;56843;52.020;5.670;2022-07-29T01:13:25;101527.84;;;14.42;62.72
69624;BME280;56843;52.020;5.670;2022-07-29T01:14:56;101517.91;;;14.42;62.59
69624;BME280;56843;52.020;5.670;2022-07-29T01:16:39;101512.19;;;14.44;62.70
69624;BME280;56843;52.020;5.670;2022-07-29T01:18:22;101518.69;;;14.43;62.69
69624;BME280;56843;52.020;5.670;2022-07-29T01:20:10;101514.06;;;14.43;62.94
69624;BME280;56843;52.020;5.670;2022-07-29T01:21:55;101508.25;;;14.41;62.71
69624;BME280;56843;52.020;5.670;2022-07-29T01:23:40;101515.22;;;14.42;62.76
69624;BME280;56843;52.020;5.670;2022-07-29T01:25:31;101508.25;;;14.41;62.69
69624;BME280;56843;52.020;5.670;2022-07-29T01:30:46;101506.81;;;14.44;62.68
69624;BME280;56843;52.020;5.670;2022-07-29T01:32:22;101504.13;;;14.44;62.71
69624;BME280;56843;52.020;5.670;2022-07-29T01:34:02;101509.94;;;14.46;62.67
69624;BME280;56843;52.020;5.670;2022-07-29T01:35:41;101503.47;;;14.47;62.76
69624;BME280;56843;52.020;5.670;2022-07-29T01:37:28;101500.78;;;14.47;62.62
69624;BME280;56843;52.020;5.670;2022-07-29T01:39:10;101500.78;;;14.47;62.82
69624;BME280;56843;52.020;5.670;2022-07-29T01:40:48;101499.66;;;14.48;62.62
69624;BME280;56843;52.020;5.670;2022-07-29T01:42:38;101508.16;;;14.50;62.78
69624;BME280;56843;52.020;5.670;2022-07-29T01:44:19;101501.09;;;14.45;62.76
69624;BME280;56843;52.020;5.670;2022-07-29T01:45:57;101503.47;;;14.47;62.96
69624;BME280;56843;52.020;5.670;2022-07-29T01:47:40;101510.41;;;14.48;62.83
69624;BME280;56843;52.020;5.670;2022-07-29T01:49:18;101508.84;;;14.47;62.67
69624;BME280;56843;52.020;5.670;2022-07-29T01:50:55;101517.69;;;14.47;62.87
69624;BME280;56843;52.020;5.670;2022-07-29T01:52:38;101516.13;;;14.46;62.89
69624;BME280;56843;52.020;5.670;2022-07-29T01:54:26;101520.69;;;14.46;62.75
69624;BME280;56843;52.020;5.670;2022-07-29T01:56:00;101521.38;;;14.43;62.95
69624;BME280;56843;52.020;5.670;2022-07-29T01:57:33;101526.75;;;14.43;62.95
69624;BME280;56843;52.020;5.670;2022-07-29T01:59:08;101524.06;;;14.43;62.83
69624;BME280;56843;52.020;5.670;2022-07-29T02:00:40;101522.13;;;14.43;62.66
69624;BME280;56843;52.020;5.670;2022-07-29T02:02:13;101531.44;;;14.46;62.91
69624;BME280;56843;52.020;5.670;2022-07-29T02:03:45;101530.34;;;14.47;62.98
69624;BME280;56843;52.020;5.670;2022-07-29T02:05:18;101528.09;;;14.49;62.58
69624;BME280;56843;52.020;5.670;2022-07-29T02:06:52;101533.13;;;14.50;62.65
69624;BME280;56843;52.020;5.670;2022-07-29T02:08:24;101527.75;;;14.50;62.89
69624;BME280;56843;52.020;5.670;2022-07-29T02:09:57;101531.69;;;14.53;62.78
69624;BME280;56843;52.020;5.670;2022-07-29T02:11:30;101533.13;;;14.50;62.89
69624;BME280;56843;52.020;5.670;2022-07-29T02:13:02;101537.06;;;14.53;62.70
69624;BME280;56843;52.020;5.670;2022-07-29T02:14:38;101542.78;;;14.51;62.96
69624;BME280;56843;52.020;5.670;2022-07-29T02:16:10;101541.53;;;14.49;62.78
69624;BME280;56843;52.020;5.670;2022-07-29T02:17:46;101530.34;;;14.47;63.00
69624;BME280;56843;52.020;5.670;2022-07-29T02:19:21;101531.78;;;14.44;63.01
69624;BME280;56843;52.020;5.670;2022-07-29T02:20:54;101532.13;;;14.43;63.33
69624;BME280;56843;52.020;5.670;2022-07-29T02:22:28;101523.91;;;14.39;63.29
69624;BME280;56843;52.020;5.670;2022-07-29T02:24:00;101527.59;;;14.35;63.60
69624;BME280;56843;52.020;5.670;2022-07-29T02:25:31;101524.78;;;14.31;63.49
69624;BME280;56843;52.020;5.670;2022-07-29T02:27:03;101518.50;;;14.27;63.97
69624;BME280;56843;52.020;5.670;2022-07-29T02:28:34;101518.38;;;14.24;64.10
69624;BME280;56843;52.020;5.670;2022-07-29T02:30:05;101522.03;;;14.19;64.56
69624;BME280;56843;52.020;5.670;2022-07-29T02:31:38;101522.56;;;14.13;64.76
69624;BME280;56843;52.020;5.670;2022-07-29T02:33:12;101505.09;;;14.07;64.99
69624;BME280;56843;52.020;5.670;2022-07-29T02:34:43;101514.13;;;14.02;65.03
69624;BME280;56843;52.020;5.670;2022-07-29T02:36:15;101498.53;;;13.95;65.74
69624;BME280;56843;52.020;5.670;2022-07-29T02:37:46;101505.19;;;13.89;65.96
69624;BME280;56843;52.020;5.670;2022-07-29T02:39:39;101497.72;;;13.74;66.17
69624;BME280;56843;52.020;5.670;2022-07-29T02:41:13;101497.44;;;13.67;66.70
69624;BME280;56843;52.020;5.670;2022-07-29T02:42:46;101505.22;;;13.60;67.07
69624;BME280;56843;52.020;5.670;2022-07-29T02:44:21;101501.94;;;13.55;67.40
69624;BME280;56843;52.020;5.670;2022-07-29T02:45:54;101509.06;;;13.51;67.80
69624;BME280;56843;52.020;5.670;2022-07-29T02:47:39;101506.91;;;13.44;68.29
69624;BME280;56843;52.020;5.670;2022-07-29T02:49:52;101498.91;;;13.36;68.64
69624;BME280;56843;52.020;5.670;2022-07-29T02:51:46;101507.63;;;13.24;68.88
69624;BME280;56843;52.020;5.670;2022-07-29T02:53:20;101511.59;;;13.18;69.56
69624;BME280;56843;52.020;5.670;2022-07-29T02:54:58;101499.94;;;13.14;69.64
69624;BME280;56843;52.020;5.670;2022-07-29T02:56:32;101501.38;;;13.11;70.15
69624;BME280;56843;52.020;5.670;2022-07-29T03:00:00;101497.47;;;13.00;70.45
69624;BME280;56843;52.020;5.670;2022-07-29T03:01:34;101490.06;;;12.97;70.52
69624;BME280;56843;52.020;5.670;2022-07-29T03:03:13;101494.50;;;12.93;71.18
69624;BME280;56843;52.020;5.670;2022-07-29T03:04:45;101488.69;;;12.91;71.17
69624;BME280;56843;52.020;5.670;2022-07-29T03:06:18;101486.34;;;12.90;71.50
69624;BME280;56843;52.020;5.670;2022-07-29T03:07:56;101482.72;;;12.86;71.87
69624;BME280;56843;52.020;5.670;2022-07-29T03:09:27;101492.81;;;12.80;72.06
69624;BME280;56843;52.020;5.670;2022-07-29T03:10:59;101482.41;;;12.79;71.94
69624;BME280;56843;52.020;5.670;2022-07-29T03:12:31;101480.81;;;12.78;72.25
69624;BME280;56843;52.020;5.670;2022-07-29T03:14:02;101486.50;;;12.76;72.66
69624;BME280;56843;52.020;5.670;2022-07-29T03:15:33;101484.44;;;12.73;72.80
69624;BME280;56843;52.020;5.670;2022-07-29T03:17:04;101476.28;;;12.70;73.07
69624;BME280;56843;52.020;5.670;2022-07-29T03:18:36;101482.44;;;12.70;73.31
69624;BME280;56843;52.020;5.670;2022-07-29T03:20:08;101473.91;;;12.68;73.38
69624;BME280;56843;52.020;5.670;2022-07-29T03:21:39;101469.19;;;12.65;73.13
69624;BME280;56843;52.020;5.670;2022-07-29T03:23:09;101470.94;;;12.61;73.61
69624;BME280;56843;52.020;5.670;2022-07-29T03:24:40;101473.63;;;12.61;73.43
69624;BME280;56843;52.020;5.670;2022-07-29T03:26:11;101468.41;;;12.56;73.50
69624;BME280;56843;52.020;5.670;2022-07-29T03:27:42;101461.66;;;12.50;73.70
69624;BME280;56843;52.020;5.670;2022-07-29T03:29:13;101463.09;;;12.47;74.31
69624;BME280;56843;52.020;5.670;2022-07-29T03:30:43;101475.69;;;12.47;73.96
69624;BME280;56843;52.020;5.670;2022-07-29T03:32:14;101471.28;;;12.42;74.27
69624;BME280;56843;52.020;5.670;2022-07-29T03:33:44;101474.91;;;12.38;74.60
69624;BME280;56843;52.020;5.670;2022-07-29T03:35:15;101464.84;;;12.35;74.43
69624;BME280;56843;52.020;5.670;2022-07-29T03:36:46;101456.50;;;12.36;74.53
69624;BME280;56843;52.020;5.670;2022-07-29T03:38:17;101457.75;;;12.39;74.25
69624;BME280;56843;52.020;5.670;2022-07-29T03:39:49;101460.72;;;12.37;74.72
69624;BME280;56843;52.020;5.670;2022-07-29T03:41:22;101455.38;;;12.37;74.72
69624;BME280;56843;52.020;5.670;2022-07-29T03:42:55;101454.28;;;12.38;74.63
69624;BME280;56843;52.020;5.670;2022-07-29T03:44:27;101450.00;;;12.37;74.94
69624;BME280;56843;52.020;5.670;2022-07-29T03:46:00;101448.47;;;12.36;74.84
69624;BME280;56843;52.020;5.670;2022-07-29T03:47:33;101449.09;;;12.33;74.99
69624;BME280;56843;52.020;5.670;2022-07-29T03:49:06;101445.47;;;12.29;75.09
69624;BME280;56843;52.020;5.670;2022-07-29T03:50:38;101445.81;;;12.28;75.67
69624;BME280;56843;52.020;5.670;2022-07-29T03:52:09;101442.00;;;12.29;75.49
69624;BME280;56843;52.020;5.670;2022-07-29T03:53:39;101452.09;;;12.32;75.34
69624;BME280;56843;52.020;5.670;2022-07-29T03:55:10;101457.59;;;12.35;75.10
69624;BME280;56843;52.020;5.670;2022-07-29T03:56:42;101451.94;;;12.37;75.17
69624;BME280;56843;52.020;5.670;2022-07-29T03:58:18;101455.69;;;12.36;75.12
69624;BME280;56843;52.020;5.670;2022-07-29T03:59:51;101450.66;;;12.34;75.06
69624;BME280;56843;52.020;5.670;2022-07-29T04:01:22;101458.25;;;12.32;75.47
69624;BME280;56843;52.020;5.670;2022-07-29T04:02:53;101449.25;;;12.28;75.74
69624;BME280;56843;52.020;5.670;2022-07-29T04:04:24;101453.38;;;12.26;75.58
69624;BME280;56843;52.020;5.670;2022-07-29T04:06:03;101451.63;;;12.30;75.30
69624;BME280;56843;52.020;5.670;2022-07-29T04:07:35;101447.53;;;12.24;75.50
69624;BME280;56843;52.020;5.670;2022-07-29T04:09:06;101450.50;;;12.22;75.42
69624;BME280;56843;52.020;5.670;2022-07-29T04:10:37;101448.16;;;12.21;75.66
69624;BME280;56843;52.020;5.670;2022-07-29T04:12:08;101451.63;;;12.21;76.01
69624;BME280;56843;52.020;5.670;2022-07-29T04:13:39;101459.97;;;12.20;75.81
69624;BME280;56843;52.020;5.670;2022-07-29T04:15:10;101460.44;;;12.22;75.78
69624;BME280;56843;52.020;5.670;2022-07-29T04:16:40;101474.78;;;12.26;75.58
69624;BME280;56843;52.020;5.670;2022-07-29T04:18:11;101478.69;;;12.28;75.37
69624;BME280;56843;52.020;5.670;2022-07-29T04:19:41;101490.84;;;12.34;75.54
69624;BME280;56843;52.020;5.670;2022-07-29T04:21:12;101482.81;;;12.34;75.52
69624;BME280;56843;52.020;5.670;2022-07-29T04:22:42;101490.19;;;12.37;75.41
69624;BME280;56843;52.020;5.670;2022-07-29T04:24:13;101480.13;;;12.34;75.55
69624;BME280;56843;52.020;5.670;2022-07-29T04:25:44;101466.09;;;12.29;76.10
69624;BME280;56843;52.020;5.670;2022-07-29T04:27:14;101454.13;;;12.26;76.36
69624;BME280;56843;52.020;5.670;2022-07-29T04:28:45;101449.44;;;12.23;76.36
69624;BME280;56843;52.020;5.670;2022-07-29T04:30:16;101447.22;;;12.25;76.47
69624;BME280;56843;52.020;5.670;2022-07-29T04:31:46;101454.13;;;12.26;76.21
69624;BME280;56843;52.020;5.670;2022-07-29T04:33:17;101457.28;;;12.28;76.12
69624;BME280;56843;52.020;5.670;2022-07-29T04:34:47;101460.75;;;12.29;76.14
69624;BME280;56843;52.020;5.670;2022-07-29T04:36:18;101467.69;;;12.30;76.18
69624;BME280;56843;52.020;5.670;2022-07-29T04:37:48;101474.13;;;12.29;76.28
69624;BME280;56843;52.020;5.670;2022-07-29T04:39:19;101476.22;;;12.23;76.56
69624;BME280;56843;52.020;5.670;2022-07-29T04:40:49;101471.78;;;12.19;76.69
69624;BME280;56843;52.020;5.670;2022-07-29T04:42:19;101461.41;;;12.17;77.05
69624;BME280;56843;52.020;5.670;2022-07-29T04:43:50;101462.97;;;12.18;76.97
69624;BME280;56843;52.020;5.670;2022-07-29T04:45:21;101467.53;;;12.18;76.89
69624;BME280;56843;52.020;5.670;2022-07-29T04:46:52;101466.59;;;12.22;76.46
69624;BME280;56843;52.020;5.670;2022-07-29T04:48:22;101465.50;;;12.23;76.56
69624;BME280;56843;52.020;5.670;2022-07-29T04:49:53;101466.09;;;12.29;76.21
69624;BME280;56843;52.020;5.670;2022-07-29T04:51:23;101461.69;;;12.33;76.30
69624;BME280;56843;52.020;5.670;2022-07-29T04:52:54;101464.19;;;12.38;76.24
69624;BME280;56843;52.020;5.670;2022-07-29T04:54:24;101483.88;;;12.42;76.24
69624;BME280;56843;52.020;5.670;2022-07-29T04:55:54;101469.88;;;12.36;76.49
69624;BME280;56843;52.020;5.670;2022-07-29T04:57:25;101480.59;;;12.36;76.27
69624;BME280;56843;52.020;5.670;2022-07-29T04:58:55;101471.44;;;12.37;76.29
69624;BME280;56843;52.020;5.670;2022-07-29T05:00:26;101476.81;;;12.37;76.23
69624;BME280;56843;52.020;5.670;2022-07-29T05:01:56;101473.34;;;12.37;76.03
69624;BME280;56843;52.020;5.670;2022-07-29T05:03:27;101482.31;;;12.41;76.20
69624;BME280;56843;52.020;5.670;2022-07-29T05:04:57;101477.09;;;12.44;75.93
69624;BME280;56843;52.020;5.670;2022-07-29T05:06:28;101483.09;;;12.50;75.85
69624;BME280;56843;52.020;5.670;2022-07-29T05:07:58;101489.06;;;12.55;75.46
69624;BME280;56843;52.020;5.670;2022-07-29T05:09:29;101484.00;;;12.63;75.36
69624;BME280;56843;52.020;5.670;2022-07-29T05:10:59;101475.81;;;12.68;75.17
69624;BME280;56843;52.020;5.670;2022-07-29T05:12:30;101471.38;;;12.72;75.27
69624;BME280;56843;52.020;5.670;2022-07-29T05:14:00;101472.16;;;12.72;75.25
69624;BME280;56843;52.020;5.670;2022-07-29T05:15:31;101470.75;;;12.75;74.93
69624;BME280;56843;52.020;5.670;2022-07-29T05:17:01;101463.00;;;12.73;75.20
69624;BME280;56843;52.020;5.670;2022-07-29T05:18:32;101460.78;;;12.75;75.24
69624;BME280;56843;52.020;5.670;2022-07-29T05:20:03;101454.00;;;12.78;75.13
69624;BME280;56843;52.020;5.670;2022-07-29T05:21:34;101453.53;;;12.76;75.20
69624;BME280;56843;52.020;5.670;2022-07-29T05:23:04;101466.47;;;12.82;75.18
69624;BME280;56843;52.020;5.670;2022-07-29T05:24:35;101471.50;;;12.84;75.22
69624;BME280;56843;52.020;5.670;2022-07-29T05:26:05;101478.59;;;12.88;75.15
69624;BME280;56843;52.020;5.670;2022-07-29T05:27:36;101476.25;;;12.87;75.12
69624;BME280;56843;52.020;5.670;2022-07-29T05:29:07;101484.44;;;12.90;74.82
69624;BME280;56843;52.020;5.670;2022-07-29T05:30:37;101495.44;;;12.97;74.71
69624;BME280;56843;52.020;5.670;2022-07-29T05:32:08;101496.97;;;13.07;74.33
69624;BME280;56843;52.020;5.670;2022-07-29T05:33:38;101498.81;;;13.15;74.12
69624;BME280;56843;52.020;5.670;2022-07-29T05:35:09;101498.19;;;13.18;73.91
69624;BME280;56843;52.020;5.670;2022-07-29T05:36:39;101490.59;;;13.20;74.02
69624;BME280;56843;52.020;5.670;2022-07-29T05:38:10;101483.03;;;13.22;73.91
69624;BME280;56843;52.020;5.670;2022-07-29T05:39:40;101487.41;;;13.26;73.72
69624;BME280;56843;52.020;5.670;2022-07-29T05:41:10;101480.97;;;13.27;73.82
69624;BME280;56843;52.020;5.670;2022-07-29T05:42:41;101490.38;;;13.34;73.55
69624;BME280;56843;52.020;5.670;2022-07-29T05:44:12;101477.09;;;13.37;73.41
69624;BME280;56843;52.020;5.670;2022-07-29T05:45:43;101491.59;;;13.45;73.35
69624;BME280;56843;52.020;5.670;2022-07-29T05:47:14;101490.47;;;13.46;73.39
69624;BME280;56843;52.020;5.670;2022-07-29T05:48:44;101501.47;;;13.53;73.10
69624;BME280;56843;52.020;5.670;2022-07-29T05:50:15;101504.59;;;13.63;72.93
69624;BME280;56843;52.020;5.670;2022-07-29T05:51:45;101509.91;;;13.72;72.77
69624;BME280;56843;52.020;5.670;2022-07-29T05:53:17;101505.00;;;13.74;72.28
69624;BME280;56843;52.020;5.670;2022-07-29T05:54:48;101515.22;;;13.80;72.49
69624;BME280;56843;52.020;5.670;2022-07-29T05:56:18;101508.97;;;13.88;71.92
69624;BME280;56843;52.020;5.670;2022-07-29T05:57:48;101507.69;;;13.94;71.87
69624;BME280;56843;52.020;5.670;2022-07-29T05:59:19;101508.41;;;14.04;71.68
69624;BME280;56843;52.020;5.670;2022-07-29T06:00:49;101514.97;;;14.15;71.37
69624;BME280;56843;52.020;5.670;2022-07-29T06:02:20;101518.44;;;14.15;71.20
69624;BME280;56843;52.020;5.670;2022-07-29T06:03:50;101528.19;;;14.20;71.18
69624;BME280;56843;52.020;5.670;2022-07-29T06:05:21;101524.19;;;14.26;71.23
69624;BME280;56843;52.020;5.670;2022-07-29T06:06:51;101522.41;;;14.30;71.06
69624;BME280;56843;52.020;5.670;2022-07-29T06:08:22;101522.22;;;14.35;70.77
69624;BME280;56843;52.020;5.670;2022-07-29T06:09:52;101531.13;;;14.47;70.43
69624;BME280;56843;52.020;5.670;2022-07-29T06:11:23;101526.78;;;14.55;70.32
69624;BME280;56843;52.020;5.670;2022-07-29T06:12:53;101530.06;;;14.60;70.03
69624;BME280;56843;52.020;5.670;2022-07-29T06:14:24;101523.44;;;14.70;69.96
69624;BME280;56843;52.020;5.670;2022-07-29T06:15:55;101527.97;;;14.78;69.81
69624;BME280;56843;52.020;5.670;2022-07-29T06:17:25;101526.53;;;14.81;69.77
69624;BME280;56843;52.020;5.670;2022-07-29T06:18:56;101525.50;;;14.85;69.61
69624;BME280;56843;52.020;5.670;2022-07-29T06:20:27;101533.25;;;14.87;69.28
69624;BME280;56843;52.020;5.670;2022-07-29T06:22:00;101539.88;;;14.89;69.24
69624;BME280;56843;52.020;5.670;2022-07-29T06:23:30;101533.81;;;14.92;69.32
69624;BME280;56843;52.020;5.670;2022-07-29T06:25:01;101538.81;;;15.02;69.07
69624;BME280;56843;52.020;5.670;2022-07-29T06:26:32;101544.19;;;15.14;68.03
69624;BME280;56843;52.020;5.670;2022-07-29T06:28:03;101530.19;;;15.21;68.30
69624;BME280;56843;52.020;5.670;2022-07-29T06:29:33;101535.78;;;15.28;68.08
69624;BME280;56843;52.020;5.670;2022-07-29T06:31:05;101533.13;;;15.40;67.80
69624;BME280;56843;52.020;5.670;2022-07-29T06:32:35;101538.16;;;15.54;67.26
69624;BME280;56843;52.020;5.670;2022-07-29T06:34:06;101537.59;;;15.60;67.22
69624;BME280;56843;52.020;5.670;2022-07-29T06:35:36;101534.44;;;15.70;66.92
69624;BME280;56843;52.020;5.670;2022-07-29T06:37:09;101530.50;;;15.80;66.27
69624;BME280;56843;52.020;5.670;2022-07-29T06:38:39;101529.56;;;15.88;66.08
69624;BME280;56843;52.020;5.670;2022-07-29T06:40:10;101537.88;;;15.95;66.11
69624;BME280;56843;52.020;5.670;2022-07-29T06:42:00;101527.50;;;16.09;65.38
69624;BME280;56843;52.020;5.670;2022-07-29T06:43:35;101535.88;;;16.32;64.82
69624;BME280;56843;52.020;5.670;2022-07-29T06:45:08;101532.25;;;16.40;64.73
69624;BME280;56843;52.020;5.670;2022-07-29T06:46:38;101536.72;;;16.48;64.05
69624;BME280;56843;52.020;5.670;2022-07-29T06:48:09;101541.50;;;16.54;63.98
69624;BME280;56843;52.020;5.670;2022-07-29T06:49:40;101521.84;;;16.54;63.90
69624;BME280;56843;52.020;5.670;2022-07-29T06:51:11;101534.63;;;16.57;63.93
69624;BME280;56843;52.020;5.670;2022-07-29T06:52:42;101538.06;;;16.69;63.51
69624;BME280;56843;52.020;5.670;2022-07-29T06:54:12;101532.16;;;16.79;63.12
69624;BME280;56843;52.020;5.670;2022-07-29T06:55:42;101543.22;;;16.90;62.81
69624;BME280;56843;52.020;5.670;2022-07-29T06:57:13;101535.59;;;17.08;62.35
69624;BME280;56843;52.020;5.670;2022-07-29T06:58:44;101532.28;;;17.30;61.79
69624;BME280;56843;52.020;5.670;2022-07-29T07:00:14;101532.16;;;17.42;61.31
69624;BME280;56843;52.020;5.670;2022-07-29T07:01:45;101536.63;;;17.50;60.84
69624;BME280;56843;52.020;5.670;2022-07-29T07:03:16;101535.09;;;17.68;60.41
69624;BME280;56843;52.020;5.670;2022-07-29T07:04:47;101532.81;;;17.86;59.87
69624;BME280;56843;52.020;5.670;2022-07-29T07:06:17;101535.38;;;17.98;59.30
69624;BME280;56843;52.020;5.670;2022-07-29T07:07:48;101530.19;;;18.08;58.85
69624;BME280;56843;52.020;5.670;2022-07-29T07:09:19;101531.50;;;18.14;58.46
69624;BME280;56843;52.020;5.670;2022-07-29T07:10:50;101532.34;;;18.18;58.17
69624;BME280;56843;52.020;5.670;2022-07-29T07:12:21;101534.81;;;18.27;58.18
69624;BME280;56843;52.020;5.670;2022-07-29T07:13:53;101525.41;;;18.40;58.09
69624;BME280;56843;52.020;5.670;2022-07-29T07:15:23;101523.50;;;18.41;57.41
69624;BME280;56843;52.020;5.670;2022-07-29T07:16:53;101529.34;;;18.43;57.68
69624;BME280;56843;52.020;5.670;2022-07-29T07:18:24;101529.16;;;18.55;57.28
69624;BME280;56843;52.020;5.670;2022-07-29T07:19:54;101527.25;;;18.74;56.70
69624;BME280;56843;52.020;5.670;2022-07-29T07:21:25;101524.44;;;18.90;56.44
69624;BME280;56843;52.020;5.670;2022-07-29T07:22:55;101527.25;;;18.97;56.06
69624;BME280;56843;52.020;5.670;2022-07-29T07:24:26;101538.75;;;19.13;55.84
69624;BME280;56843;52.020;5.670;2022-07-29T07:25:56;101523.28;;;19.14;55.33
69624;BME280;56843;52.020;5.670;2022-07-29T07:27:27;101534.91;;;19.14;55.40
69624;BME280;56843;52.020;5.670;2022-07-29T07:28:57;101529.06;;;19.12;55.90
69624;BME280;56843;52.020;5.670;2022-07-29T07:30:28;101536.31;;;19.08;55.52
69624;BME280;56843;52.020;5.670;2022-07-29T07:31:59;101534.34;;;19.05;56.05
69624;BME280;56843;52.020;5.670;2022-07-29T07:33:29;101534.69;;;19.03;55.59
69624;BME280;56843;52.020;5.670;2022-07-29T07:35:00;101531.69;;;19.08;55.57
69624;BME280;56843;52.020;5.670;2022-07-29T07:36:31;101538.38;;;19.15;55.47
69624;BME280;56843;52.020;5.670;2022-07-29T07:38:04;101526.88;;;19.21;55.33
69624;BME280;56843;52.020;5.670;2022-07-29T07:39:36;101527.75;;;19.29;55.06
69624;BME280;56843;52.020;5.670;2022-07-29T07:41:07;101525.59;;;19.38;54.85
69624;BME280;56843;52.020;5.670;2022-07-29T07:42:38;101520.38;;;19.52;54.43
69624;BME280;56843;52.020;5.670;2022-07-29T07:44:10;101518.66;;;19.63;54.12
69624;BME280;56843;52.020;5.670;2022-07-29T07:45:41;101524.19;;;19.73;53.82
69624;BME280;56843;52.020;5.670;2022-07-29T07:47:12;101515.84;;;19.86;53.72
69624;BME280;56843;52.020;5.670;2022-07-29T07:48:43;101526.47;;;19.98;53.01
69624;BME280;56843;52.020;5.670;2022-07-29T07:50:13;101531.69;;;20.13;52.93
69624;BME280;56843;52.020;5.670;2022-07-29T07:51:44;101539.91;;;20.20;52.26
69624;BME280;56843;52.020;5.670;2022-07-29T07:53:15;101535.84;;;20.37;52.11
69624;BME280;56843;52.020;5.670;2022-07-29T07:54:46;101539.84;;;20.46;51.46
69624;BME280;56843;52.020;5.670;2022-07-29T07:56:17;101535.22;;;20.47;51.23
69624;BME280;56843;52.020;5.670;2022-07-29T07:57:47;101538.28;;;20.45;51.33
69624;BME280;56843;52.020;5.670;2022-07-29T07:59:18;101539.34;;;20.37;51.34
69624;BME280;56843;52.020;5.670;2022-07-29T08:00:48;101531.06;;;20.27;51.36
69624;BME280;56843;52.020;5.670;2022-07-29T08:02:19;101540.63;;;20.14;51.84
69624;BME280;56843;52.020;5.670;2022-07-29T08:03:49;101532.91;;;20.19;51.97
69624;BME280;56843;52.020;5.670;2022-07-29T08:05:20;101538.16;;;20.35;51.67
69624;BME280;56843;52.020;5.670;2022-07-29T08:06:50;101527.81;;;20.47;51.17
69624;BME280;56843;52.020;5.670;2022-07-29T08:08:21;101526.72;;;20.52;50.61